This is the latest recevied weather packets stored in our database for station/object WMKA. If no packets are shown the sender has not sent any weather packets the latest 10 day(s).
| Time | Temp. | Humidity | Pressure | Rain* | Wind** | Luminosity | Snow |
|---|---|---|---|---|---|---|---|
| 1777975799 | 33.89° C | 56% | 1004 hPa | - | - | - | - |
| 1777972203 | 33.89° C | 56% | 1005 hPa | - | - | - | - |
| 1777968599 | 33.89° C | 56% | 1005 hPa | - | - | - | - |
| 1777965000 | 33.89° C | 56% | 1007 hPa | - | - | - | - |
| 1777961398 | 33.89° C | 56% | 1008 hPa | - | - | - | - |
| 1777957803 | 32.78° C | 59% | 1009 hPa | - | - | - | - |
| 1777954198 | 31.67° C | 66% | 1010 hPa | - | - | - | - |
| 1777950600 | 30.56° C | 70% | 1010 hPa | - | - | - | - |
| 1777946998 | 28.89° C | 79% | 1010 hPa | - | - | - | - |
| 1777943398 | 26.67° C | 88% | 1009 hPa | - | - | - | - |
| 1777939804 | 25° C | 94% | 1009 hPa | - | - | - | - |
| 1777936199 | 25° C | 94% | 1008 hPa | - | - | - | - |
| 1777932598 | 25° C | 94% | 1008 hPa | - | - | - | - |
| 1777928998 | 25° C | 94% | 1008 hPa | - | - | - | - |
| 1777925399 | 25° C | 94% | 1008 hPa | - | - | - | - |
| 1777921804 | 25° C | 94% | 1009 hPa | - | - | - | - |
| 1777918203 | 25.56° C | 88% | 1009 hPa | - | - | - | - |
| 1777914599 | 25.56° C | 88% | 1010 hPa | - | - | - | - |
| 1777910997 | 25.56° C | 94% | 1010 hPa | - | - | - | - |
| 1777907402 | 25.56° C | 88% | 1010 hPa | - | - | - | - |
| 1777903801 | 25.56° C | 88% | 1009 hPa | - | - | - | - |
| 1777900197 | 25.56° C | 88% | 1009 hPa | - | - | - | - |
| 1777896597 | 25.56° C | 94% | 1007 hPa | - | - | - | - |
| 1777893001 | 25.56° C | 94% | 1007 hPa | - | - | - | - |
| 1777889398 | 25.56° C | 94% | 1007 hPa | - | - | - | - |
* Rain since midnight (hover to see other rain measurements)
** Current wind speed in m/s (hover to see current wind gust speed)